Time;durP1;ratioP1;P1;durP2;ratioP2;P2;SDS_P1;SDS_P2;PMS_P1;PMS_P2;Temp;Humidity;BMP_temperature;BMP_pressure;BME280_temperature;BME280_humidity;BME280_pressure;Samples;Min_cycle;Max_cycle;Signal;HPM_P1;HPM_P2
2023/08/22 00:00:50;;;;;;;23.90;11.40;;;;;;;24.97;57.41;101300.31;107408;1254;111897;-61
2023/08/22 00:03:31;;;;;;;22.70;12.50;;;;;;;24.98;57.16;101296.40;107421;1257;110128;-62
2023/08/22 00:06:00;;;;;;;21.00;12.00;;;;;;;24.99;56.95;101296.91;107386;1254;107431;-61
2023/08/22 00:08:29;;;;;;;18.00;10.30;;;;;;;25.01;56.64;101298.73;107412;1254;97821;-61
2023/08/22 00:10:59;;;;;;;16.80;11.00;;;;;;;25.03;56.64;101301.13;107435;1254;97745;-61
2023/08/22 00:13:27;;;;;;;21.90;11.90;;;;;;;25.01;57.00;101298.89;107277;1257;112541;-62
2023/08/22 00:15:59;;;;;;;21.90;12.00;;;;;;;24.95;57.00;101297.23;107392;1254;109967;-62
2023/08/22 00:18:28;;;;;;;27.90;13.20;;;;;;;24.83;57.34;101305.80;107337;1257;107170;-61
2023/08/22 00:20:56;;;;;;;19.00;11.90;;;;;;;24.76;57.89;101305.83;107301;1256;97931;-63
2023/08/22 00:23:24;;;;;;;18.30;12.30;;;;;;;24.66;58.27;101308.23;107379;1257;97838;-62
2023/08/22 00:25:54;;;;;;;20.40;12.40;;;;;;;24.59;58.50;101304.41;107387;1257;111826;-62
2023/08/22 00:28:22;;;;;;;17.70;12.70;;;;;;;24.57;58.43;101298.92;107399;1257;108321;-62
2023/08/22 00:30:53;;;;;;;19.50;11.90;;;;;;;24.55;58.89;101298.97;107324;1254;108235;-62
2023/08/22 00:33:22;;;;;;;19.60;12.30;;;;;;;24.52;58.85;101304.83;107426;1257;98109;-63
2023/08/22 00:35:50;;;;;;;17.80;12.50;;;;;;;24.50;59.12;101309.65;107195;1256;98393;-62
2023/08/22 00:38:19;;;;;;;19.90;12.70;;;;;;;24.47;59.09;101306.23;107404;1257;111249;-61
2023/08/22 00:40:47;;;;;;;23.40;12.90;;;;;;;24.44;58.93;101306.58;107311;1260;108824;-60
2023/08/22 00:43:17;;;;;;;19.00;13.30;;;;;;;24.39;59.31;101303.00;107383;1258;108025;-60
2023/08/22 00:45:45;;;;;;;16.30;13.00;;;;;;;24.31;59.72;101301.41;107380;1256;97841;-62
2023/08/22 00:48:14;;;;;;;18.00;12.70;;;;;;;24.25;59.68;101300.20;107367;1256;98457;-61
2023/08/22 00:50:43;;;;;;;28.00;12.70;;;;;;;24.21;60.06;101304.69;107429;1259;111948;-62
2023/08/22 00:53:11;;;;;;;16.60;11.80;;;;;;;24.17;59.84;101307.36;107086;1257;109838;-61
2023/08/22 00:55:39;;;;;;;18.70;11.70;;;;;;;24.13;59.98;101304.95;107316;1256;107354;-61
2023/08/22 00:58:10;;;;;;;21.60;13.30;;;;;;;24.14;60.53;101304.36;107334;1257;98487;-61
2023/08/22 01:00:38;;;;;;;23.40;13.00;;;;;;;24.16;60.63;101303.86;107376;1259;97874;-60
2023/08/22 01:03:07;;;;;;;18.40;12.70;;;;;;;24.14;60.34;101308.92;107379;1256;111317;-62
2023/08/22 01:05:42;;;;;;;29.20;13.40;;;;;;;24.13;60.79;101305.67;107257;1256;109228;-61
2023/08/22 01:08:28;;;;;;;20.60;12.10;;;;;;;24.13;61.11;101305.84;107356;1257;107286;-60
2023/08/22 01:11:09;;;;;;;25.30;12.90;;;;;;;24.13;60.94;101313.79;107252;1257;97680;-61
2023/08/22 01:13:41;;;;;;;26.50;12.60;;;;;;;24.12;60.55;101310.62;107361;1254;97605;-61
2023/08/22 01:16:10;;;;;;;24.80;12.90;;;;;;;24.12;60.75;101310.27;107332;1257;111323;-62
2023/08/22 01:18:40;;;;;;;22.60;12.50;;;;;;;24.10;60.81;101310.38;107182;1256;109072;-61
2023/08/22 01:21:17;;;;;;;28.40;13.20;;;;;;;24.09;60.88;101305.34;107410;1257;108294;-61
2023/08/22 01:23:46;;;;;;;16.50;11.70;;;;;;;24.11;60.52;101308.55;107372;1257;97979;-61
2023/08/22 01:26:15;;;;;;;17.20;11.80;;;;;;;24.14;60.49;101308.38;107349;1257;98483;-60
2023/08/22 01:28:46;;;;;;;19.70;11.90;;;;;;;24.14;60.51;101307.74;107235;1257;110755;-61
2023/08/22 01:31:21;;;;;;;17.30;12.30;;;;;;;24.14;60.63;101312.17;107215;1256;108785;-61
2023/08/22 01:33:53;;;;;;;14.20;11.90;;;;;;;24.15;60.44;101305.80;107250;1260;107620;-62
2023/08/22 01:36:25;;;;;;;18.60;12.20;;;;;;;24.15;60.62;101307.08;107349;1256;97852;-61
2023/08/22 01:38:54;;;;;;;27.70;13.40;;;;;;;24.10;60.79;101307.20;107419;1257;97723;-62
2023/08/22 01:41:24;;;;;;;22.60;13.50;;;;;;;24.05;61.11;101307.64;107403;1256;112726;-62
2023/08/22 01:43:53;;;;;;;19.10;12.80;;;;;;;24.03;61.30;101308.55;107334;1255;109335;-62
2023/08/22 01:46:21;;;;;;;19.20;12.70;;;;;;;23.99;61.61;101309.27;107368;1257;108269;-61
2023/08/22 01:48:51;;;;;;;20.50;12.60;;;;;;;23.96;61.94;101304.89;107379;1259;97820;-62
2023/08/22 01:51:20;;;;;;;23.10;13.10;;;;;;;23.94;61.94;101299.85;107318;1257;98389;-62
2023/08/22 01:53:49;;;;;;;15.60;13.00;;;;;;;23.92;61.56;101294.60;107383;1257;112404;-61
2023/08/22 01:56:17;;;;;;;26.70;13.30;;;;;;;23.92;61.72;101286.23;107385;1254;110317;-62
2023/08/22 01:58:45;;;;;;;25.80;14.40;;;;;;;23.89;61.89;101295.17;107374;1257;107181;-62
2023/08/22 02:01:14;;;;;;;22.40;13.50;;;;;;;23.81;61.90;101300.80;107145;1262;97861;-62
2023/08/22 02:03:43;;;;;;;25.10;13.60;;;;;;;23.77;61.80;101300.84;107194;1256;97855;-62
2023/08/22 02:06:11;;;;;;;38.00;13.00;;;;;;;23.73;61.58;101303.59;107391;1254;112045;-62
2023/08/22 02:08:40;;;;;;;18.60;14.10;;;;;;;23.71;61.80;101306.30;107412;1254;108426;-62
2023/08/22 02:11:09;;;;;;;23.60;13.60;;;;;;;23.71;61.98;101311.06;107364;1254;109433;-62
2023/08/22 02:13:37;;;;;;;23.00;14.20;;;;;;;23.67;62.33;101319.69;107361;1257;98011;-61
2023/08/22 02:16:05;;;;;;;18.90;14.40;;;;;;;23.56;62.55;101320.40;107352;1257;98251;-62
2023/08/22 02:18:33;;;;;;;19.50;13.40;;;;;;;23.48;62.70;101322.16;107141;1256;111716;-63
2023/08/22 02:21:03;;;;;;;22.20;14.30;;;;;;;23.41;62.63;101318.56;107384;1257;109808;-62
2023/08/22 02:23:32;;;;;;;23.80;14.80;;;;;;;23.37;63.01;101320.55;107368;1256;107478;-61
2023/08/22 02:26:00;;;;;;;26.40;14.60;;;;;;;23.33;63.28;101317.11;107387;1257;98397;-61
2023/08/22 02:28:28;;;;;;;25.10;13.70;;;;;;;23.30;63.72;101321.91;107351;1256;97835;-61
2023/08/22 02:30:57;;;;;;;20.30;14.30;;;;;;;23.27;63.88;101320.55;107298;1257;111414;-60
2023/08/22 02:33:25;;;;;;;23.10;13.80;;;;;;;23.25;63.90;101318.19;107342;1257;108631;-61
2023/08/22 02:35:54;;;;;;;19.60;13.50;;;;;;;23.24;64.33;101317.98;107278;1256;107844;-60
2023/08/22 02:38:23;;;;;;;24.80;14.10;;;;;;;23.22;64.35;101314.52;107350;1256;97749;-62
2023/08/22 02:40:51;;;;;;;23.70;13.60;;;;;;;23.22;64.72;101310.58;107374;1257;97716;-61
2023/08/22 02:43:19;;;;;;;27.10;14.50;;;;;;;23.20;64.35;101312.95;107273;1257;111923;-61
2023/08/22 02:45:47;;;;;;;16.90;13.20;;;;;;;23.18;64.48;101317.79;107293;1257;110072;-61
2023/08/22 02:48:16;;;;;;;23.30;14.70;;;;;;;23.15;65.23;101317.45;107214;1257;108171;-60
2023/08/22 02:50:49;;;;;;;25.30;15.40;;;;;;;23.11;64.91;101315.08;107231;1257;98637;-62
2023/08/22 02:53:17;;;;;;;28.80;14.60;;;;;;;23.07;65.60;101322.29;107381;1254;97852;-62
2023/08/22 02:55:49;;;;;;;28.10;14.10;;;;;;;23.02;65.63;101317.88;107395;1254;110699;-60
2023/08/22 02:58:17;;;;;;;27.90;13.40;;;;;;;23.02;65.37;101318.10;107430;1254;109352;-61
2023/08/22 03:00:46;;;;;;;25.80;14.30;;;;;;;23.05;65.18;101323.30;107385;1254;108185;-62
2023/08/22 03:03:15;;;;;;;31.40;14.40;;;;;;;23.09;65.51;101331.52;107335;1254;97950;-60
2023/08/22 03:05:45;;;;;;;28.60;15.00;;;;;;;23.11;65.05;101329.43;107441;1254;97914;-62
2023/08/22 03:08:13;;;;;;;31.50;14.50;;;;;;;23.16;64.69;101332.86;107368;1254;112208;-60
2023/08/22 03:10:42;;;;;;;29.80;14.40;;;;;;;23.15;64.63;101332.79;107405;1257;108773;-61
2023/08/22 03:13:11;;;;;;;24.30;14.00;;;;;;;23.16;64.52;101332.00;107332;1254;108473;-63
2023/08/22 03:15:40;;;;;;;28.90;14.80;;;;;;;23.17;65.01;101327.89;107449;1254;97710;-64
2023/08/22 03:18:10;;;;;;;25.30;14.60;;;;;;;23.14;65.01;101334.35;107459;1254;97724;-64
2023/08/22 03:20:39;;;;;;;24.00;14.50;;;;;;;23.12;65.33;101333.87;107449;1254;111963;-61
2023/08/22 03:23:07;;;;;;;19.10;14.70;;;;;;;23.06;65.21;101334.95;107221;1257;109758;-60
2023/08/22 03:25:37;;;;;;;21.60;12.90;;;;;;;23.02;65.13;101333.04;107382;1254;107376;-61
2023/08/22 03:28:05;;;;;;;25.80;15.10;;;;;;;23.03;65.47;101334.23;107377;1254;98484;-61
2023/08/22 03:30:34;;;;;;;24.00;14.20;;;;;;;23.04;65.70;101334.48;107197;1254;98379;-62
2023/08/22 03:33:03;;;;;;;17.80;14.50;;;;;;;23.04;65.49;101338.53;107410;1254;111707;-61
2023/08/22 03:35:31;;;;;;;27.20;15.20;;;;;;;23.02;65.41;101337.30;107281;1256;109143;-62
2023/08/22 03:38:00;;;;;;;24.00;14.00;;;;;;;23.02;65.77;101344.48;107384;1254;108542;-62
2023/08/22 03:40:28;;;;;;;22.70;13.10;;;;;;;22.97;66.11;101343.33;107408;1254;98062;-62
2023/08/22 03:42:57;;;;;;;47.20;23.10;;;;;;;22.95;66.29;101340.44;107311;1254;97860;-61
2023/08/22 03:45:26;;;;;;;27.10;14.60;;;;;;;22.95;66.26;101336.51;107430;1254;111157;-61
2023/08/22 03:47:54;;;;;;;29.00;15.00;;;;;;;22.95;66.31;101339.45;107338;1260;109773;-62
2023/08/22 03:50:23;;;;;;;24.70;14.40;;;;;;;22.97;66.41;101339.14;107310;1254;108106;-61
2023/08/22 03:52:51;;;;;;;31.00;14.70;;;;;;;22.97;66.29;101337.70;107395;1254;97998;-62
2023/08/22 03:55:19;;;;;;;29.80;16.30;;;;;;;22.96;66.35;101344.65;107308;1254;98424;-62
2023/08/22 03:57:48;;;;;;;26.10;15.40;;;;;;;22.99;66.04;101350.11;107242;1254;111298;-61
2023/08/22 04:00:16;;;;;;;23.40;14.60;;;;;;;23.05;66.28;101349.38;107415;1254;109329;-61
2023/08/22 04:02:46;;;;;;;23.80;14.50;;;;;;;23.10;66.12;101349.56;107395;1254;107523;-61
2023/08/22 04:05:14;;;;;;;26.20;14.30;;;;;;;23.17;66.01;101353.48;107286;1254;97823;-64
2023/08/22 04:07:43;;;;;;;26.10;14.50;;;;;;;23.22;65.92;101350.61;107443;1257;97956;-61
2023/08/22 04:10:11;;;;;;;28.70;15.20;;;;;;;23.28;65.93;101359.11;107264;1260;112299;-61
2023/08/22 04:12:40;;;;;;;21.70;14.40;;;;;;;23.33;65.89;101362.98;107282;1257;109663;-61
2023/08/22 04:15:09;;;;;;;19.90;14.00;;;;;;;23.39;65.92;101363.52;107422;1254;108129;-61
2023/08/22 04:17:41;;;;;;;30.60;15.70;;;;;;;23.42;66.09;101363.80;107378;1254;97922;-61
2023/08/22 04:20:11;;;;;;;21.80;14.40;;;;;;;23.42;65.60;101366.55;107176;1254;97842;-60
2023/08/22 04:22:41;;;;;;;28.40;15.40;;;;;;;23.42;65.18;101371.70;107435;1254;111404;-62
2023/08/22 04:25:10;;;;;;;27.70;15.70;;;;;;;23.40;65.39;101374.19;107394;1254;108593;-62
2023/08/22 04:27:39;;;;;;;29.90;15.30;;;;;;;23.38;65.68;101379.30;107386;1254;106840;-62
2023/08/22 04:30:10;;;;;;;22.50;14.90;;;;;;;23.37;65.69;101382.61;107280;1254;97829;-62
2023/08/22 04:32:38;;;;;;;28.90;17.00;;;;;;;23.39;65.74;101385.03;107424;1254;97895;-62
2023/08/22 04:35:08;;;;;;;25.80;15.70;;;;;;;23.45;65.56;101385.94;107426;1254;111714;-62
2023/08/22 04:37:40;;;;;;;33.40;16.30;;;;;;;23.53;65.36;101392.42;107374;1257;109389;-61
2023/08/22 04:40:10;;;;;;;30.60;17.00;;;;;;;23.56;65.21;101396.91;107246;1257;108602;-61
2023/08/22 04:42:59;;;;;;;29.80;16.00;;;;;;;23.61;65.09;101396.20;107394;1259;97818;-62
2023/08/22 04:45:27;;;;;;;30.20;19.80;;;;;;;23.68;64.83;101394.06;107327;1254;97979;-62
2023/08/22 04:47:56;;;;;;;36.40;16.70;;;;;;;23.72;64.79;101397.66;107376;1254;112338;-62
2023/08/22 04:50:25;;;;;;;27.20;16.00;;;;;;;23.70;64.86;101402.52;107318;1254;109293;-61
2023/08/22 04:52:53;;;;;;;31.20;16.00;;;;;;;23.66;65.04;101399.59;107246;1258;107397;-61
2023/08/22 04:55:23;;;;;;;26.60;16.00;;;;;;;23.65;65.08;101402.73;107355;1254;97886;-62
2023/08/22 04:57:52;;;;;;;36.00;16.10;;;;;;;23.69;64.94;101405.73;107273;1254;98360;-61
2023/08/22 05:00:20;;;;;;;29.40;15.90;;;;;;;23.71;65.28;101407.12;107424;1254;110793;-63
2023/08/22 05:02:48;;;;;;;35.20;16.50;;;;;;;23.72;65.22;101408.84;107373;1254;108760;-64
2023/08/22 05:05:18;;;;;;;30.30;16.30;;;;;;;23.72;65.41;101411.81;107292;1254;107262;-64
2023/08/22 05:07:46;;;;;;;32.70;15.50;;;;;;;23.72;65.42;101414.94;107055;1254;97991;-62
2023/08/22 05:10:15;;;;;;;27.40;15.70;;;;;;;23.73;65.85;101413.50;107255;1254;97845;-60
2023/08/22 05:12:43;;;;;;;31.00;16.80;;;;;;;23.74;65.72;101409.84;107327;1254;111187;-62
2023/08/22 05:15:12;;;;;;;29.90;16.20;;;;;;;23.77;65.93;101413.55;107382;1257;109909;-62
2023/08/22 05:17:40;;;;;;;29.60;15.90;;;;;;;23.78;65.71;101416.48;107364;1254;106955;-63
2023/08/22 05:20:13;;;;;;;29.20;15.50;;;;;;;23.85;65.53;101415.52;107418;1254;97898;-62
2023/08/22 05:22:44;;;;;;;28.20;15.60;;;;;;;23.93;65.46;101419.00;107359;1258;97797;-61
2023/08/22 05:25:12;;;;;;;28.90;15.20;;;;;;;23.99;65.27;101420.59;107256;1257;112040;-62
2023/08/22 05:27:41;;;;;;;31.00;16.60;;;;;;;24.07;65.48;101418.27;107265;1257;110163;-61
2023/08/22 05:30:10;;;;;;;35.40;16.70;;;;;;;24.15;65.10;101417.81;107362;1257;108109;-61
2023/08/22 05:32:39;;;;;;;29.40;16.10;;;;;;;24.21;65.18;101416.16;107363;1254;97835;-62
2023/08/22 05:35:09;;;;;;;35.80;16.80;;;;;;;24.36;64.67;101418.41;107426;1254;97713;-62
2023/08/22 05:37:38;;;;;;;27.90;15.80;;;;;;;24.51;64.59;101418.00;107293;1254;111841;-62
2023/08/22 05:40:09;;;;;;;24.60;15.30;;;;;;;24.60;64.15;101419.22;107373;1254;109836;-62
2023/08/22 05:42:38;;;;;;;27.70;16.80;;;;;;;24.71;63.75;101421.69;107448;1254;108822;-62
2023/08/22 05:45:07;;;;;;;31.00;15.30;;;;;;;24.81;63.79;101422.09;107409;1254;97946;-62
2023/08/22 05:47:37;;;;;;;24.00;15.80;;;;;;;24.92;63.41;101426.80;107363;1254;97751;-61
2023/08/22 05:50:07;;;;;;;26.50;16.50;;;;;;;24.97;63.08;101427.08;107366;1254;110764;-63
2023/08/22 05:52:36;;;;;;;32.90;16.20;;;;;;;24.97;62.82;101421.40;107350;1254;108668;-62
2023/08/22 05:55:06;;;;;;;23.70;15.50;;;;;;;24.98;62.72;101418.95;107240;1260;108658;-62
2023/08/22 05:57:34;;;;;;;24.50;15.10;;;;;;;24.96;62.77;101417.73;107257;1254;97829;-63
2023/08/22 06:00:04;;;;;;;26.20;15.30;;;;;;;25.01;62.68;101419.36;107370;1254;99038;-62
2023/08/22 06:02:44;;;;;;;21.90;14.70;;;;;;;25.07;62.65;101414.97;107391;1258;110757;-62
2023/08/22 06:05:15;;;;;;;25.60;15.10;;;;;;;25.09;62.52;101415.17;107415;1254;108903;-62
2023/08/22 06:07:44;;;;;;;28.80;14.90;;;;;;;25.07;62.34;101414.94;107307;1254;108606;-61
2023/08/22 06:10:12;;;;;;;26.40;15.00;;;;;;;25.09;62.54;101417.13;107306;1260;97970;-62
2023/08/22 06:12:41;;;;;;;22.80;15.50;;;;;;;25.09;62.91;101420.73;107410;1254;98360;-63
2023/08/22 06:15:10;;;;;;;24.30;15.40;;;;;;;25.08;62.74;101425.39;107259;1260;112161;-61
2023/08/22 06:17:38;;;;;;;36.20;16.20;;;;;;;25.10;62.72;101425.84;107281;1254;110165;-63
2023/08/22 06:20:07;;;;;;;31.70;15.60;;;;;;;25.14;62.81;101423.39;107380;1254;107287;-61
2023/08/22 06:22:36;;;;;;;36.40;16.00;;;;;;;25.19;62.63;101422.98;107363;1254;97898;-62
2023/08/22 06:25:04;;;;;;;21.30;14.40;;;;;;;25.28;62.58;101426.63;107405;1254;97828;-61
2023/08/22 06:27:33;;;;;;;27.90;14.20;;;;;;;25.39;62.35;101422.23;107292;1254;111041;-62
2023/08/22 06:30:04;;;;;;;27.10;17.00;;;;;;;25.51;62.12;101422.95;107356;1258;108997;-63
2023/08/22 06:32:35;;;;;;;60.00;26.30;;;;;;;25.58;62.01;101417.52;107391;1254;107366;-62
2023/08/22 06:35:04;;;;;;;36.60;19.50;;;;;;;25.67;61.68;101416.27;107263;1254;97924;-62
2023/08/22 06:37:32;;;;;;;20.90;14.10;;;;;;;25.77;61.63;101417.40;107313;1254;97870;-62
2023/08/22 06:40:03;;;;;;;28.60;14.20;;;;;;;25.83;61.08;101412.66;107416;1254;112479;-61
2023/08/22 06:42:32;;;;;;;26.90;14.30;;;;;;;25.90;60.94;101413.29;107275;1257;109328;-61
2023/08/22 06:45:06;;;;;;;23.20;13.60;;;;;;;25.96;60.66;101412.60;107339;1257;108100;-61
2023/08/22 06:47:35;;;;;;;26.40;13.30;;;;;;;25.99;60.51;101410.42;107409;1254;97831;-61
2023/08/22 06:50:04;;;;;;;17.80;12.70;;;;;;;26.05;60.44;101410.67;107415;1254;98390;-64
2023/08/22 06:52:33;;;;;;;25.40;13.70;;;;;;;26.11;59.91;101414.09;107404;1254;112438;-62
2023/08/22 06:55:02;;;;;;;22.70;13.20;;;;;;;26.15;59.92;101406.42;107415;1254;109836;-63
2023/08/22 06:57:30;;;;;;;24.60;13.90;;;;;;;26.24;59.78;101404.89;107457;1254;109024;-61
2023/08/22 07:00:13;;;;;;;26.30;13.30;;;;;;;26.34;59.72;101405.07;107395;1260;97847;-61
2023/08/22 07:02:42;;;;;;;18.50;12.60;;;;;;;26.44;59.37;101405.48;107419;1254;97828;-61
2023/08/22 07:05:12;;;;;;;23.80;12.30;;;;;;;26.50;58.85;101403.09;107460;1257;111656;-63
2023/08/22 07:07:41;;;;;;;30.00;12.90;;;;;;;26.57;58.75;101401.36;107414;1257;110046;-61
2023/08/22 07:10:11;;;;;;;19.90;12.20;;;;;;;26.68;58.41;101403.63;107392;1256;107734;-62
2023/08/22 07:12:44;;;;;;;31.20;12.80;;;;;;;26.78;57.89;101401.15;107390;1254;98365;-61
2023/08/22 07:15:13;;;;;;;19.70;13.00;;;;;;;26.89;57.73;101399.47;107465;1254;97834;-62
2023/08/22 07:17:41;;;;;;;25.00;12.10;;;;;;;26.99;57.59;101402.36;107418;1254;111866;-62
2023/08/22 07:20:14;;;;;;;25.20;12.90;;;;;;;27.05;57.36;101401.71;107439;1254;109555;-62
2023/08/22 07:22:42;;;;;;;18.80;12.10;;;;;;;27.05;57.05;101406.38;107354;1260;107920;-62
2023/08/22 07:25:11;;;;;;;17.80;11.60;;;;;;;27.09;56.88;101401.73;107309;1254;97873;-61
2023/08/22 07:27:39;;;;;;;19.90;11.20;;;;;;;27.15;56.64;101404.89;107432;1254;97853;-62
2023/08/22 07:30:09;;;;;;;20.70;12.00;;;;;;;27.26;56.47;101402.03;107399;1254;111871;-62
2023/08/22 07:32:37;;;;;;;22.20;11.80;;;;;;;27.37;56.32;101407.20;107466;1255;108709;-62
2023/08/22 07:35:07;;;;;;;25.00;12.70;;;;;;;27.46;56.20;101403.44;107452;1254;107697;-62
2023/08/22 07:37:36;;;;;;;21.70;11.80;;;;;;;27.58;55.68;101404.73;107422;1254;97912;-62
2023/08/22 07:40:05;;;;;;;17.30;11.80;;;;;;;27.71;55.55;101402.62;107408;1257;97727;-61
2023/08/22 07:42:35;;;;;;;20.00;11.10;;;;;;;27.81;55.12;101397.87;107404;1254;112227;-62
2023/08/22 07:45:04;;;;;;;24.90;11.30;;;;;;;27.91;55.06;101393.25;107324;1260;110187;-63
2023/08/22 07:47:32;;;;;;;26.80;11.20;;;;;;;27.99;54.65;101389.64;107431;1254;107696;-62
2023/08/22 07:50:02;;;;;;;16.20;10.80;;;;;;;28.09;54.29;101392.88;107407;1254;97832;-62
2023/08/22 07:52:32;;;;;;;20.20;11.70;;;;;;;28.20;54.07;101385.80;107433;1254;98458;-63
2023/08/22 07:55:00;;;;;;;24.10;11.10;;;;;;;28.34;53.55;101383.48;107438;1254;111092;-62
2023/08/22 07:57:31;;;;;;;15.00;10.50;;;;;;;28.45;53.33;101383.89;107273;1254;109906;-62
2023/08/22 08:00:00;;;;;;;16.70;10.50;;;;;;;28.57;53.26;101380.30;107413;1254;109157;-61
2023/08/22 08:02:39;;;;;;;15.50;10.50;;;;;;;28.74;52.35;101380.13;107388;1254;97810;-62
2023/08/22 08:05:08;;;;;;;15.90;10.50;;;;;;;28.86;51.68;101370.43;107429;1258;98365;-63
2023/08/22 08:07:36;;;;;;;18.30;9.90;;;;;;;28.97;51.93;101370.33;107409;1254;110594;-60
2023/08/22 08:10:06;;;;;;;20.20;9.70;;;;;;;29.10;51.26;101370.41;107426;1254;109632;-61
2023/08/22 08:12:34;;;;;;;13.00;9.00;;;;;;;29.21;50.92;101368.24;107382;1257;106903;-62
2023/08/22 08:15:03;;;;;;;17.40;9.30;;;;;;;29.36;50.10;101369.85;107353;1257;97837;-61
2023/08/22 08:17:32;;;;;;;17.10;9.90;;;;;;;29.47;50.27;101364.45;107396;1257;98456;-62
2023/08/22 08:20:02;;;;;;;26.10;9.60;;;;;;;29.63;49.84;101367.06;107420;1255;111854;-61
2023/08/22 08:22:31;;;;;;;16.80;9.30;;;;;;;29.79;49.17;101361.34;107253;1254;109677;-62
2023/08/22 08:24:59;;;;;;;17.60;9.30;;;;;;;29.93;48.56;101363.88;107394;1254;108514;-63
2023/08/22 08:27:28;;;;;;;18.10;8.80;;;;;;;30.04;48.37;101361.50;107420;1254;97936;-61
2023/08/22 08:29:56;;;;;;;22.90;13.20;;;;;;;30.19;47.81;101358.79;107387;1254;97707;-61
2023/08/22 08:32:25;;;;;;;19.30;10.20;;;;;;;30.27;47.83;101360.80;107256;1257;110884;-63
2023/08/22 08:34:53;;;;;;;17.50;9.60;;;;;;;30.35;47.75;101360.41;107362;1259;109281;-61
2023/08/22 08:37:22;;;;;;;12.20;8.80;;;;;;;30.53;47.36;101361.20;107429;1259;108552;-62
2023/08/22 08:39:50;;;;;;;16.40;8.60;;;;;;;30.74;46.38;101359.48;107425;1255;97857;-64
2023/08/22 08:42:19;;;;;;;8.90;7.30;;;;;;;30.91;45.83;101362.52;107443;1260;97825;-62
2023/08/22 08:44:47;;;;;;;15.30;7.30;;;;;;;31.15;45.26;101359.49;107414;1254;111529;-63
2023/08/22 08:47:16;;;;;;;13.50;7.40;;;;;;;31.33;44.95;101361.74;107387;1254;109249;-62
2023/08/22 08:49:45;;;;;;;10.40;7.10;;;;;;;31.36;44.70;101358.07;107434;1254;106845;-61
2023/08/22 08:52:15;;;;;;;9.20;6.90;;;;;;;31.36;43.81;101355.05;107395;1254;97835;-62
2023/08/22 08:54:45;;;;;;;10.70;6.70;;;;;;;31.36;43.52;101356.27;107456;1254;98372;-62
2023/08/22 08:57:14;;;;;;;11.30;6.40;;;;;;;31.51;44.02;101350.42;107438;1254;110521;-62
2023/08/22 08:59:43;;;;;;;15.30;6.40;;;;;;;31.80;42.80;101341.91;107337;1257;108960;-62
2023/08/22 09:02:15;;;;;;;13.40;6.70;;;;;;;32.05;42.54;101345.27;107434;1254;108713;-63
2023/08/22 09:04:44;;;;;;;16.60;6.50;;;;;;;32.06;42.15;101347.77;107386;1257;97825;-62
2023/08/22 09:07:14;;;;;;;17.00;7.10;;;;;;;31.98;42.06;101346.45;107372;1258;97830;-62
2023/08/22 09:09:42;;;;;;;13.20;7.80;;;;;;;31.86;42.31;101342.90;107416;1254;111782;-61
2023/08/22 09:12:13;;;;;;;13.10;6.90;;;;;;;31.97;42.54;101336.65;107458;1254;110191;-62
2023/08/22 09:14:46;;;;;;;9.70;6.00;;;;;;;32.05;42.03;101337.25;107439;1258;107644;-62
2023/08/22 09:17:18;;;;;;;13.60;6.30;;;;;;;32.13;42.15;101338.20;107409;1254;97777;-63
2023/08/22 09:19:46;;;;;;;9.20;5.80;;;;;;;32.25;40.68;101333.90;107437;1259;97733;-62
2023/08/22 09:22:15;;;;;;;10.20;6.10;;;;;;;32.20;40.82;101333.41;107442;1254;111892;-61
2023/08/22 09:24:53;;;;;;;12.10;5.80;;;;;;;32.35;41.08;101335.86;107383;1254;109198;-62
2023/08/22 09:27:26;;;;;;;7.10;5.90;;;;;;;32.52;41.14;101335.73;107433;1254;108633;-61
2023/08/22 09:30:04;;;;;;;8.20;5.60;;;;;;;32.59;40.86;101333.63;107431;1260;97822;-61
2023/08/22 09:32:33;;;;;;;12.10;5.80;;;;;;;32.53;40.20;101329.27;107479;1254;97714;-60
2023/08/22 09:35:02;;;;;;;16.80;5.80;;;;;;;32.55;39.96;101329.49;107401;1254;111844;-61
2023/08/22 09:37:33;;;;;;;7.60;5.40;;;;;;;32.95;39.71;101324.88;107378;1259;109699;-61
2023/08/22 09:40:07;;;;;;;13.50;5.60;;;;;;;33.63;39.04;101321.73;107400;1260;108639;-62
2023/08/22 09:42:39;;;;;;;11.50;5.60;;;;;;;34.22;37.97;101316.71;107453;1254;97832;-61
2023/08/22 09:45:09;;;;;;;12.40;6.10;;;;;;;34.26;37.55;101313.75;107413;1259;97851;-61
2023/08/22 09:47:44;;;;;;;9.30;5.80;;;;;;;34.08;36.93;101314.35;107411;1257;111471;-61
2023/08/22 09:50:17;;;;;;;16.60;6.20;;;;;;;33.69;37.16;101316.77;107420;1257;109950;-62
2023/08/22 09:52:47;;;;;;;25.30;6.80;;;;;;;33.47;38.43;101317.44;107414;1254;108301;-62
2023/08/22 09:55:16;;;;;;;12.80;6.00;;;;;;;33.43;38.79;101316.77;107430;1254;97824;-61
2023/08/22 09:57:46;;;;;;;11.20;6.50;;;;;;;33.28;38.48;101318.90;107107;1253;464102;-61
2023/08/22 10:00:15;;;;;;;21.60;6.00;;;;;;;33.22;38.51;101314.31;107436;1254;111767;-61
2023/08/22 10:02:46;;;;;;;17.40;6.20;;;;;;;33.18;38.27;101316.98;107363;1257;108207;-60
2023/08/22 10:05:14;;;;;;;9.70;5.40;;;;;;;33.13;38.14;101312.63;107324;1260;108281;-62
2023/08/22 10:07:43;;;;;;;9.80;5.70;;;;;;;33.10;38.11;101313.84;107419;1259;97862;-61
2023/08/22 10:10:12;;;;;;;8.60;5.20;;;;;;;33.04;38.08;101311.88;107412;1254;97665;-61
2023/08/22 10:12:42;;;;;;;10.10;5.40;;;;;;;33.46;37.44;101312.11;107406;1254;110934;-61
2023/08/22 10:15:15;;;;;;;13.30;5.00;;;;;;;33.97;36.60;101312.08;107348;1254;109815;-61
2023/08/22 10:17:45;;;;;;;10.00;5.50;;;;;;;34.25;36.51;101304.42;107392;1258;107647;-62
2023/08/22 10:20:15;;;;;;;8.70;4.70;;;;;;;35.08;34.99;101306.15;107399;1260;97826;-60
2023/08/22 10:22:44;;;;;;;11.80;4.50;;;;;;;35.28;34.24;101310.55;107417;1254;98402;-61
2023/08/22 10:25:12;;;;;;;7.20;4.60;;;;;;;35.26;33.01;101309.73;107428;1260;111582;-62
2023/08/22 10:27:48;;;;;;;6.50;4.50;;;;;;;35.28;33.48;101307.98;107399;1257;110162;-62
2023/08/22 10:30:19;;;;;;;13.00;5.60;;;;;;;35.33;34.20;101306.33;107362;1254;108009;-61
2023/08/22 10:33:06;;;;;;;13.30;5.00;;;;;;;35.28;34.47;101299.38;107434;1254;97826;-61
2023/08/22 10:36:15;;;;;;;20.40;5.20;;;;;;;35.43;34.33;101303.63;107397;1259;97714;-61
2023/08/22 10:39:00;;;;;;;10.80;5.50;;;;;;;35.38;33.88;101304.56;107368;1257;111853;-61
2023/08/22 10:41:55;;;;;;;13.70;5.00;;;;;;;35.16;33.48;101294.70;107430;1258;109828;-61
2023/08/22 10:44:30;;;;;;;10.60;4.60;;;;;;;35.37;33.43;101290.98;107273;1260;107494;-63
2023/08/22 10:47:03;;;;;;;6.90;4.90;;;;;;;35.65;34.11;101289.90;107252;1257;97851;-62
2023/08/22 10:49:33;;;;;;;9.60;4.40;;;;;;;36.29;33.40;101293.69;107459;1254;98878;-61
2023/08/22 10:52:07;;;;;;;8.50;4.50;;;;;;;36.06;32.05;101291.09;107309;1254;110943;-61
2023/08/22 10:54:57;;;;;;;5.80;4.00;;;;;;;35.88;31.33;101290.38;107394;1255;109390;-60
2023/08/22 10:57:27;;;;;;;10.20;4.90;;;;;;;35.45;31.61;101293.54;107271;1254;107791;-63
2023/08/22 11:00:06;;;;;;;6.00;4.00;;;;;;;35.65;32.03;101288.05;107380;1257;97861;-62
2023/08/22 11:02:36;;;;;;;7.10;4.00;;;;;;;36.57;31.37;101283.61;107376;1254;97850;-62
2023/08/22 11:05:11;;;;;;;12.20;4.40;;;;;;;37.55;29.64;101281.10;107459;1257;111213;-62
2023/08/22 11:07:42;;;;;;;9.00;3.60;;;;;;;38.30;28.50;101278.50;107434;1254;109676;-61
2023/08/22 11:10:19;;;;;;;6.60;3.90;;;;;;;38.88;27.77;101272.95;107292;1257;107648;-60
2023/08/22 11:12:49;;;;;;;6.30;3.70;;;;;;;38.91;27.27;101278.51;107390;1255;98389;-61